CYZVCYNA

Guest
Details From CYZV - Sept Iles
To CYNA - Natashquan
Flight Number -
Tags Generated
Created
Modified
Stats Distance 172 nm / 319 km
Max Altitude 0 ft / 0 m
Waypoints 2
Social Downloads 1
Likes 0
Share VATSIM

Download

Looking for another format? Having issues loading an existing format? Contact us
Advertisement - Login to hide

Notes

Generated

Route

CYZV CYNA

ID Type Via Altitude Latitude Longitude Leg Dist Tot Dist Heading (true) Name
O CYZV APT - 0 ft / 0 m 50.22972˚ -66.27694˚ - 0 nm - -
O CYNA APT - 0 ft / 0 m 50.19296˚ -61.79743˚ 172 nm 172 nm 89° / 92° -

Altitude Profile

Advertisement - Login to hide

Weather


0- 5 10 15 20 25 30 35+ Temperature / ° C

Clouds and Precipitation
Forecast for 2017-12-18 06:00 UTC. Updated 7 minutes ago

Ground ~20,000 ft ~40,000 ft Winds

CYZV

Details ICAO CYZV (YZV)
Name SEPT ILES
Region Canada
Timezone America/Montreal (UTC-5.0)
Stats Elevation 180 ft / 55 m (AMSL)
Location 50.223890° -66.267501°
Runways 3
Magnetic Variation 18.807° W

METAR

CYZV 180100Z 30005KT 15SM FEW020 M17/M21 A3004 RMK CF1 SLP181

Decode

TAF

TAF CYZV 172340Z 1800/1824 30008KT P6SM SKC RMK NXT FCST BY 180600Z

Decode

Departure Runways

ID Width Length Bearing (true) Bearing (mag) Surface Threshold Offset Overrun Length
05 200 ft / 61 m 5,936 ft / 1,809 m 29.45° 48.26° Asphalt 0 ft / 0 m 0 ft / 0 m
09 150 ft / 46 m 6,647 ft / 2,026 m 69.47° 88.28° Asphalt 0 ft / 0 m 0 ft / 0 m
13 200 ft / 61 m 6,055 ft / 1,846 m 109.55° 128.36° Asphalt 0 ft / 0 m 0 ft / 0 m
23 200 ft / 61 m 5,936 ft / 1,809 m 209.46° 228.27° Asphalt 0 ft / 0 m 0 ft / 0 m
27 150 ft / 46 m 6,647 ft / 2,026 m 249.49° 268.30° Asphalt 0 ft / 0 m 0 ft / 0 m
31 200 ft / 61 m 6,055 ft / 1,846 m 289.57° 308.38° Asphalt 0 ft / 0 m 0 ft / 0 m

CYNA

Details ICAO CYNA (YNA)
Name NATASHQUAN
Region Canada
Timezone America/Montreal (UTC-5.0)
Stats Elevation 39 ft / 12 m (AMSL)
Location 50.190084° -61.788947°
Runways 1
Magnetic Variation 19.462° W

METAR

CYNA 180100Z AUTO 32014G19KT 9SM CLR M13/M19 A2984 RMK SLP107

Decode

TAF

TAF CYNA 171938Z 1720/1808 31012G22KT P6SM FEW240 RMK FCST BASED ON AUTO OBS. NXT FCST BY 180200Z

Decode

Destination Runways

ID Width Length Bearing (true) Bearing (mag) Surface Threshold Offset Overrun Length
14 100 ft / 30 m 4,486 ft / 1,367 m 117.90° 137.36° Asphalt 0 ft / 0 m 0 ft / 0 m
32 100 ft / 30 m 4,486 ft / 1,367 m 297.91° 317.37° Asphalt 0 ft / 0 m 0 ft / 0 m

Popular Alternatives